createdAt,value
2023-02-11T00:00:50.335Z,22.62
2023-02-11T00:03:23.211Z,22.40
2023-02-11T00:06:01.138Z,21.52
2023-02-11T00:08:33.677Z,23.92
2023-02-11T00:11:06.609Z,22.77
2023-02-11T00:13:39.492Z,22.22
2023-02-11T00:16:14.801Z,22.58
2023-02-11T00:18:47.320Z,23.27
2023-02-11T00:21:25.914Z,24.90
2023-02-11T00:24:00.143Z,24.10
2023-02-11T00:26:35.903Z,24.00
2023-02-11T00:29:09.099Z,24.47
2023-02-11T00:31:42.074Z,23.35
2023-02-11T00:34:14.971Z,22.32
2023-02-11T00:36:49.538Z,22.77
2023-02-11T00:39:21.915Z,23.45
2023-02-11T00:41:54.850Z,23.10
2023-02-11T00:44:27.162Z,25.80
2023-02-11T00:46:59.580Z,24.02
2023-02-11T00:49:32.098Z,25.00
2023-02-11T00:52:05.238Z,24.07
2023-02-11T00:57:11.257Z,24.65
2023-02-11T00:59:43.760Z,24.35
2023-02-11T01:02:16.199Z,23.98
2023-02-11T01:04:48.827Z,24.95
2023-02-11T01:07:21.497Z,26.00
2023-02-11T01:09:53.981Z,25.17
2023-02-11T01:12:26.526Z,24.92
2023-02-11T01:14:59.592Z,25.65
2023-02-11T01:17:42.740Z,23.35
2023-02-11T01:20:25.127Z,23.27
2023-02-11T01:22:57.828Z,23.65
2023-02-11T01:25:30.264Z,22.55
2023-02-11T01:28:03.066Z,23.47
2023-02-11T01:30:35.649Z,23.83
2023-02-11T01:33:08.808Z,21.50
2023-02-11T01:35:42.336Z,22.15
2023-02-11T01:38:24.359Z,21.75
2023-02-11T01:41:06.898Z,21.95
2023-02-11T01:43:43.967Z,21.82
2023-02-11T01:46:35.240Z,23.00
2023-02-11T01:49:24.651Z,22.15
2023-02-11T01:52:04.728Z,24.63
2023-02-11T01:54:58.912Z,23.07
2023-02-11T01:57:33.577Z,24.23
2023-02-11T02:00:28.500Z,23.10
2023-02-11T02:03:20.315Z,24.57
2023-02-11T02:06:04.824Z,24.40
2023-02-11T02:11:25.098Z,24.20
2023-02-11T02:13:57.681Z,25.82
2023-02-11T02:16:34.807Z,26.93
2023-02-11T02:19:36.102Z,27.15
2023-02-11T02:22:18.930Z,26.30
2023-02-11T02:25:31.081Z,27.60
2023-02-11T02:28:29.893Z,26.75
2023-02-11T02:31:18.891Z,24.25
2023-02-11T02:34:04.353Z,26.55
2023-02-11T02:36:54.780Z,25.57
2023-02-11T02:39:30.562Z,23.92
2023-02-11T02:42:04.144Z,25.17
2023-02-11T02:44:36.898Z,23.50
2023-02-11T02:47:10.129Z,24.30
2023-02-11T02:49:42.700Z,23.32
2023-02-11T02:52:53.788Z,24.23
2023-02-11T02:55:54.862Z,23.67
2023-02-11T02:58:38.502Z,24.07
2023-02-11T03:01:38.664Z,24.07
2023-02-11T03:04:48.896Z,23.92
2023-02-11T03:07:32.079Z,24.45
2023-02-11T03:10:15.481Z,24.98
2023-02-11T03:12:49.094Z,25.75
2023-02-11T03:15:21.542Z,25.40
2023-02-11T03:17:55.412Z,24.00
2023-02-11T03:20:27.826Z,26.40
2023-02-11T03:23:11.721Z,27.10
2023-02-11T03:25:54.194Z,25.92
2023-02-11T03:28:33.449Z,25.72
2023-02-11T03:31:19.114Z,24.23
2023-02-11T03:34:05.642Z,25.48
2023-02-11T03:36:46.257Z,25.37
2023-02-11T03:39:26.077Z,25.12
2023-02-11T03:41:59.058Z,24.65
2023-02-11T03:44:36.073Z,24.57
2023-02-11T03:47:11.454Z,24.45
2023-02-11T03:49:43.992Z,27.13
2023-02-11T03:52:16.698Z,24.75
2023-02-11T03:54:50.746Z,24.37
2023-02-11T03:57:23.122Z,22.90
2023-02-11T03:59:58.495Z,24.35
2023-02-11T04:02:35.091Z,24.50
2023-02-11T04:05:08.902Z,24.70
2023-02-11T04:07:41.371Z,24.82
2023-02-11T04:10:14.564Z,25.92
2023-02-11T04:12:48.232Z,25.52
2023-02-11T04:15:21.212Z,27.62
2023-02-11T04:17:53.826Z,25.80
2023-02-11T04:20:26.736Z,28.10
2023-02-11T04:22:59.246Z,25.27
2023-02-11T04:25:32.162Z,28.30
2023-02-11T04:28:04.895Z,26.97
2023-02-11T04:30:37.617Z,26.35
2023-02-11T04:33:10.425Z,28.90
2023-02-11T04:35:44.604Z,28.10
2023-02-11T04:38:17.889Z,27.10
2023-02-11T04:40:51.273Z,28.02
2023-02-11T04:43:23.789Z,30.00
2023-02-11T04:46:20.035Z,27.45
2023-02-11T04:48:53.694Z,27.45
2023-02-11T04:51:26.431Z,26.00
2023-02-11T04:54:00.637Z,28.65
2023-02-11T04:56:33.712Z,26.55
2023-02-11T04:59:06.194Z,27.55
2023-02-11T05:01:39.584Z,26.52
2023-02-11T05:04:12.647Z,24.55
2023-02-11T05:06:45.798Z,26.10
2023-02-11T05:09:18.895Z,26.73
2023-02-11T05:11:51.890Z,26.73
2023-02-11T05:14:24.262Z,24.75
2023-02-11T05:16:56.757Z,26.57
2023-02-11T05:19:29.620Z,26.60
2023-02-11T05:22:03.836Z,25.95
2023-02-11T05:24:37.523Z,26.65
2023-02-11T05:27:10.019Z,27.60
2023-02-11T05:29:42.700Z,26.50
2023-02-11T05:32:15.075Z,34.95
2023-02-11T05:34:47.751Z,28.60
2023-02-11T05:37:21.590Z,26.25
2023-02-11T05:39:53.954Z,25.50
2023-02-11T05:42:26.718Z,25.75
2023-02-11T05:44:59.375Z,26.45
2023-02-11T05:47:32.246Z,24.43
2023-02-11T05:50:05.771Z,26.33
2023-02-11T05:52:38.532Z,24.32
2023-02-11T05:55:11.430Z,36.50
2023-02-11T05:57:43.825Z,26.95
2023-02-11T06:00:17.397Z,28.40
2023-02-11T06:02:50.052Z,25.40
2023-02-11T06:05:22.730Z,24.35
2023-02-11T06:07:55.839Z,25.30
2023-02-11T06:10:29.756Z,23.98
2023-02-11T06:13:02.914Z,22.05
2023-02-11T06:15:35.434Z,23.98
2023-02-11T06:18:08.254Z,23.30
2023-02-11T06:20:41.718Z,22.82
2023-02-11T06:23:14.195Z,22.07
2023-02-11T06:26:04.272Z,23.27
2023-02-11T06:28:41.672Z,26.75
2023-02-11T06:31:12.547Z,23.77
2023-02-11T06:33:45.143Z,22.95
2023-02-11T06:36:19.577Z,22.80
2023-02-11T06:38:52.668Z,23.35
2023-02-11T06:41:25.600Z,22.80
2023-02-11T06:43:58.168Z,23.40
2023-02-11T06:46:30.840Z,22.87
2023-02-11T06:49:03.390Z,23.92
2023-02-11T06:51:36.206Z,22.70
2023-02-11T06:54:08.788Z,21.40
2023-02-11T06:56:42.891Z,22.00
2023-02-11T06:59:21.912Z,23.80
2023-02-11T07:01:54.582Z,22.50
2023-02-11T07:04:27.017Z,22.37
2023-02-11T07:06:59.683Z,21.60
2023-02-11T07:09:32.229Z,22.55
2023-02-11T07:12:27.337Z,23.92
2023-02-11T07:15:00.193Z,22.95
2023-02-11T07:17:32.935Z,22.20
2023-02-11T07:20:07.469Z,21.97
2023-02-11T07:22:40.422Z,22.13
2023-02-11T07:25:12.793Z,23.55
2023-02-11T07:27:45.853Z,24.05
2023-02-11T07:30:18.459Z,23.20
2023-02-11T07:32:50.904Z,23.87
2023-02-11T07:35:24.281Z,24.70
2023-02-11T07:37:57.185Z,24.18
2023-02-11T07:40:31.774Z,24.00
2023-02-11T07:43:04.456Z,24.55
2023-02-11T07:45:39.708Z,25.80
2023-02-11T07:48:12.035Z,25.15
2023-02-11T07:50:45.403Z,25.52
2023-02-11T07:53:17.947Z,25.97
2023-02-11T07:55:51.436Z,27.95
2023-02-11T07:58:24.298Z,24.70
2023-02-11T08:00:59.001Z,26.97
2023-02-11T08:03:31.839Z,25.55
2023-02-11T08:06:13.324Z,27.73
2023-02-11T08:08:45.712Z,28.65
2023-02-11T08:11:28.202Z,27.30
2023-02-11T08:14:00.581Z,26.90
2023-02-11T08:16:35.309Z,27.67
2023-02-11T08:19:14.775Z,26.90
2023-02-11T08:21:47.234Z,29.20
2023-02-11T08:24:19.854Z,27.22
2023-02-11T08:26:54.117Z,27.25
2023-02-11T08:29:26.593Z,28.47
2023-02-11T08:31:58.968Z,27.95
2023-02-11T08:34:31.600Z,28.83
2023-02-11T08:37:04.395Z,28.67
2023-02-11T08:39:36.979Z,29.15
2023-02-11T08:42:09.547Z,26.80
2023-02-11T08:44:43.989Z,28.65
2023-02-11T08:47:16.452Z,28.98
2023-02-11T08:49:49.079Z,28.23
2023-02-11T08:52:21.829Z,31.40
2023-02-11T08:54:54.362Z,30.43
2023-02-11T08:57:27.010Z,30.37
2023-02-11T08:59:59.615Z,28.70
2023-02-11T09:02:32.032Z,30.62
2023-02-11T09:05:04.561Z,31.25
2023-02-11T09:07:38.595Z,30.08
2023-02-11T09:10:12.107Z,26.80
2023-02-11T09:12:44.417Z,29.98
2023-02-11T09:15:16.883Z,28.20
2023-02-11T09:17:49.230Z,28.10
2023-02-11T09:20:22.290Z,29.77
2023-02-11T09:22:55.440Z,30.30
2023-02-11T09:25:27.783Z,28.60
2023-02-11T09:28:00.629Z,30.27
2023-02-11T09:30:33.937Z,30.23
2023-02-11T09:33:07.057Z,28.73
2023-02-11T09:35:43.754Z,29.23
2023-02-11T09:38:16.896Z,29.52
2023-02-11T09:40:49.799Z,28.85
2023-02-11T09:43:32.506Z,29.27
2023-02-11T09:46:05.971Z,29.90
2023-02-11T09:48:42.163Z,31.33
2023-02-11T09:51:27.604Z,31.42
2023-02-11T09:54:05.447Z,30.25
2023-02-11T09:56:37.192Z,29.12
2023-02-11T09:59:17.883Z,30.62
2023-02-11T10:02:01.238Z,28.42
2023-02-11T10:04:58.362Z,29.48
2023-02-11T10:07:42.463Z,29.40
2023-02-11T10:10:39.508Z,31.77
2023-02-11T10:13:32.570Z,33.05
2023-02-11T10:16:39.287Z,31.42
2023-02-11T10:19:31.124Z,32.17
2023-02-11T10:22:19.974Z,33.08
2023-02-11T10:24:57.942Z,31.48
2023-02-11T10:27:35.358Z,31.50
2023-02-11T10:30:22.034Z,30.25
2023-02-11T10:33:23.008Z,30.95
2023-02-11T10:35:55.328Z,29.87
2023-02-11T10:38:29.008Z,33.70
2023-02-11T10:41:01.317Z,30.62
2023-02-11T10:43:34.049Z,31.82
2023-02-11T10:46:07.132Z,29.37
2023-02-11T10:48:52.961Z,29.18
2023-02-11T10:51:37.745Z,32.05
2023-02-11T10:54:15.243Z,32.03
2023-02-11T10:56:53.542Z,31.95
2023-02-11T10:59:37.046Z,30.65
2023-02-11T11:02:28.232Z,31.82
2023-02-11T11:05:08.025Z,30.25
2023-02-11T11:07:40.690Z,29.67
2023-02-11T11:10:32.670Z,31.90
2023-02-11T11:13:05.705Z,29.02
2023-02-11T11:15:38.199Z,32.55
2023-02-11T11:18:23.322Z,33.02
2023-02-11T11:21:25.375Z,32.65
2023-02-11T11:24:00.816Z,29.63
2023-02-11T11:26:49.092Z,30.55
2023-02-11T11:29:34.697Z,31.77
2023-02-11T11:32:28.300Z,28.95
2023-02-11T11:35:12.976Z,29.07
2023-02-11T11:37:46.221Z,30.25
2023-02-11T11:40:26.676Z,31.50
2023-02-11T11:43:22.663Z,30.55
2023-02-11T11:45:59.580Z,32.40
2023-02-11T11:48:39.478Z,30.37
2023-02-11T11:51:12.769Z,30.90
2023-02-11T11:54:10.186Z,29.25
2023-02-11T11:56:50.287Z,29.92
2023-02-11T11:59:23.062Z,31.27
2023-02-11T12:02:32.889Z,31.73
2023-02-11T12:05:27.353Z,32.33
2023-02-11T12:08:24.839Z,29.45
2023-02-11T12:11:23.383Z,31.07
2023-02-11T12:14:20.174Z,33.50
2023-02-11T12:17:29.001Z,32.83
2023-02-11T12:20:33.722Z,31.85
2023-02-11T12:23:29.014Z,32.63
2023-02-11T12:26:23.306Z,30.82
2023-02-11T12:29:42.935Z,31.90
2023-02-11T12:32:36.567Z,32.00
2023-02-11T12:35:35.312Z,30.30
2023-02-11T12:38:14.913Z,29.15
2023-02-11T12:41:22.245Z,31.57
2023-02-11T12:43:54.828Z,30.85
2023-02-11T12:46:37.309Z,31.70
2023-02-11T12:49:23.159Z,29.27
2023-02-11T12:52:25.663Z,28.67
2023-02-11T12:55:05.995Z,29.95
2023-02-11T12:57:39.118Z,30.70
2023-02-11T13:00:22.261Z,31.35
2023-02-11T13:03:13.832Z,34.18
2023-02-11T13:05:55.332Z,31.57
2023-02-11T13:08:46.322Z,28.67
2023-02-11T13:11:36.092Z,28.98
2023-02-11T13:14:16.470Z,28.32
2023-02-11T13:16:51.217Z,28.52
2023-02-11T13:19:31.510Z,28.47
2023-02-11T13:22:18.585Z,26.70
2023-02-11T13:25:06.900Z,26.25
2023-02-11T13:28:11.103Z,27.22
2023-02-11T13:30:45.199Z,26.30
2023-02-11T13:33:21.152Z,24.32
2023-02-11T13:36:04.465Z,24.90
2023-02-11T13:38:36.019Z,25.77
2023-02-11T13:41:18.279Z,23.77
2023-02-11T13:44:20.720Z,24.85
2023-02-11T13:47:02.515Z,22.80
2023-02-11T13:49:44.049Z,21.65
2023-02-11T13:52:33.955Z,21.85
2023-02-11T13:55:17.262Z,20.68
2023-02-11T13:58:17.617Z,20.40
2023-02-11T14:00:52.205Z,19.48
2023-02-11T14:03:48.558Z,18.42
2023-02-11T14:06:41.340Z,19.98
2023-02-11T14:09:21.610Z,17.90
2023-02-11T14:11:58.280Z,19.30
2023-02-11T14:14:33.597Z,16.75
2023-02-11T14:17:14.718Z,17.75
2023-02-11T14:19:49.454Z,17.37
2023-02-11T14:22:31.895Z,17.12
2023-02-11T14:25:05.918Z,14.33
2023-02-11T14:27:47.685Z,15.58
2023-02-11T14:30:36.563Z,15.85
2023-02-11T14:33:42.603Z,14.05
2023-02-11T14:36:54.627Z,14.93
2023-02-11T14:40:04.965Z,12.73
2023-02-11T14:42:38.051Z,14.70
2023-02-11T14:45:12.688Z,14.20
2023-02-11T14:48:02.876Z,15.13
2023-02-11T14:50:53.939Z,14.80
2023-02-11T14:53:27.171Z,15.55
2023-02-11T14:55:59.900Z,16.37
2023-02-11T15:01:10.650Z,14.58
2023-02-11T15:03:47.109Z,14.90
2023-02-11T15:06:49.832Z,14.47
2023-02-11T15:09:26.335Z,15.35
2023-02-11T15:11:59.839Z,14.85
2023-02-11T15:14:55.511Z,17.02
2023-02-11T15:17:31.876Z,15.98
2023-02-11T15:20:04.388Z,16.48
2023-02-11T15:22:39.825Z,16.12
2023-02-11T15:25:16.864Z,17.92
2023-02-11T15:27:53.034Z,17.95
2023-02-11T15:30:32.245Z,17.90
2023-02-11T15:33:06.928Z,18.40
2023-02-11T15:35:42.916Z,18.05
2023-02-11T15:38:15.630Z,19.05
2023-02-11T15:40:58.585Z,18.48
2023-02-11T15:43:48.684Z,18.32
2023-02-11T15:46:42.216Z,17.98
2023-02-11T15:49:17.736Z,19.35
2023-02-11T15:51:50.805Z,18.75
2023-02-11T15:54:26.920Z,19.35
2023-02-11T15:57:08.161Z,19.25
2023-02-11T15:59:42.494Z,20.08
2023-02-11T16:02:32.125Z,19.90
2023-02-11T16:05:09.746Z,20.62
2023-02-11T16:07:53.142Z,20.95
2023-02-11T16:10:36.536Z,21.12
2023-02-11T16:13:14.066Z,20.62
2023-02-11T16:15:54.501Z,20.35
2023-02-11T16:18:40.439Z,21.48
2023-02-11T16:21:19.730Z,21.00
2023-02-11T16:23:57.746Z,20.72
2023-02-11T16:26:37.382Z,21.20
2023-02-11T16:29:22.278Z,21.35
2023-02-11T16:31:57.879Z,23.12
2023-02-11T16:34:30.446Z,21.90
2023-02-11T16:37:06.026Z,21.95
2023-02-11T16:39:38.509Z,22.35
2023-02-11T16:42:13.012Z,20.52
2023-02-11T16:44:45.586Z,20.23
2023-02-11T16:47:28.634Z,20.95
2023-02-11T16:50:01.444Z,19.98
2023-02-11T16:52:34.696Z,21.97
2023-02-11T16:55:08.793Z,22.02
2023-02-11T16:57:41.405Z,22.27
2023-02-11T17:00:17.134Z,23.27
2023-02-11T17:02:49.768Z,22.50
2023-02-11T17:05:25.312Z,22.30
2023-02-11T17:07:58.469Z,20.88
2023-02-11T17:10:30.991Z,20.30
2023-02-11T17:13:05.251Z,21.37
2023-02-11T17:15:37.967Z,21.60
2023-02-11T17:18:16.193Z,19.87
2023-02-11T17:20:48.620Z,21.75
2023-02-11T17:23:21.294Z,20.35
2023-02-11T17:25:57.997Z,19.23
2023-02-11T17:28:30.449Z,19.17
2023-02-11T17:31:03.465Z,19.55
2023-02-11T17:33:36.371Z,18.73
2023-02-11T17:36:09.933Z,20.23
2023-02-11T17:38:42.699Z,19.10
2023-02-11T17:41:15.101Z,20.25
2023-02-11T17:43:47.649Z,19.12
2023-02-11T17:46:24.616Z,19.62
2023-02-11T17:48:59.070Z,19.50
2023-02-11T17:51:34.753Z,19.50
2023-02-11T17:54:11.594Z,19.85
2023-02-11T17:56:44.274Z,18.98
2023-02-11T17:59:16.742Z,19.27
2023-02-11T18:01:49.471Z,19.95
2023-02-11T18:04:22.688Z,18.92
2023-02-11T18:07:07.554Z,19.00
2023-02-11T18:09:42.288Z,19.98
2023-02-11T18:12:17.213Z,19.23
2023-02-11T18:14:49.618Z,19.42
2023-02-11T18:17:43.797Z,20.00
2023-02-11T18:20:16.595Z,19.30
2023-02-11T18:22:48.955Z,18.75
2023-02-11T18:25:21.619Z,19.27
2023-02-11T18:27:54.947Z,20.27
2023-02-11T18:30:28.867Z,19.15
2023-02-11T18:33:01.287Z,21.27
2023-02-11T18:35:34.616Z,20.92
2023-02-11T18:38:07.084Z,19.70
2023-02-11T18:40:42.834Z,20.50
2023-02-11T18:43:16.349Z,19.57
2023-02-11T18:45:49.314Z,19.98
2023-02-11T18:48:22.566Z,19.67
2023-02-11T18:50:55.435Z,19.42
2023-02-11T18:53:27.806Z,20.77
2023-02-11T18:56:01.379Z,20.20
2023-02-11T18:58:35.238Z,21.57
2023-02-11T19:01:22.916Z,20.17
2023-02-11T19:03:58.682Z,20.30
2023-02-11T19:06:35.541Z,21.85
2023-02-11T19:09:12.901Z,21.25
2023-02-11T19:11:50.205Z,22.75
2023-02-11T19:14:31.571Z,20.60
2023-02-11T19:17:25.048Z,20.97
2023-02-11T19:19:57.490Z,21.25
2023-02-11T19:22:30.032Z,21.37
2023-02-11T19:25:02.370Z,21.17
2023-02-11T19:27:35.491Z,21.20
2023-02-11T19:30:10.040Z,22.73
2023-02-11T19:32:43.161Z,22.93
2023-02-11T19:35:15.758Z,21.90
2023-02-11T19:37:48.191Z,22.22
2023-02-11T19:40:21.491Z,21.97
2023-02-11T19:42:55.314Z,21.97
2023-02-11T19:45:28.610Z,21.27
2023-02-11T19:48:01.133Z,23.18
2023-02-11T19:50:34.170Z,23.35
2023-02-11T19:53:07.306Z,23.75
2023-02-11T19:55:46.751Z,24.50
2023-02-11T19:58:19.289Z,23.98
2023-02-11T20:00:51.856Z,23.52
2023-02-11T20:03:24.949Z,22.87
2023-02-11T20:05:57.710Z,23.85
2023-02-11T20:08:30.886Z,25.05
2023-02-11T20:11:19.941Z,25.12
2023-02-11T20:13:53.057Z,25.27
2023-02-11T20:16:41.020Z,24.45
2023-02-11T20:19:01.928Z,25.77
2023-02-11T20:21:34.820Z,24.67
2023-02-11T20:24:07.357Z,23.92
2023-02-11T20:26:42.637Z,24.43
2023-02-11T20:31:47.030Z,24.60
2023-02-11T20:34:21.423Z,24.57
2023-02-11T20:36:54.985Z,24.20
2023-02-11T20:39:28.354Z,23.77
2023-02-11T20:42:00.833Z,24.77
2023-02-11T20:44:35.470Z,23.80
2023-02-11T20:47:08.401Z,24.65
2023-02-11T20:49:40.809Z,22.67
2023-02-11T20:52:14.002Z,24.63
2023-02-11T20:54:47.293Z,25.05
2023-02-11T20:57:31.062Z,25.93
2023-02-11T21:00:03.539Z,24.02
2023-02-11T21:02:36.021Z,25.10
2023-02-11T21:05:08.849Z,24.37
2023-02-11T21:07:42.590Z,25.27
2023-02-11T21:10:15.247Z,23.92
2023-02-11T21:12:49.929Z,25.20
2023-02-11T21:17:56.482Z,25.17
2023-02-11T21:20:28.979Z,23.20
2023-02-11T21:23:01.986Z,23.60
2023-02-11T21:25:35.015Z,24.20
2023-02-11T21:28:07.502Z,23.15
2023-02-11T21:30:41.204Z,24.95
2023-02-11T21:33:14.714Z,23.55
2023-02-11T21:35:47.452Z,27.60
2023-02-11T21:38:20.024Z,25.30
2023-02-11T21:40:52.379Z,24.80
2023-02-11T21:43:25.105Z,24.90
2023-02-11T21:45:57.600Z,23.57
2023-02-11T21:48:30.179Z,24.05
2023-02-11T21:51:12.563Z,23.98
2023-02-11T21:53:45.043Z,25.05
2023-02-11T21:56:19.217Z,24.45
2023-02-11T21:58:54.217Z,23.10
2023-02-11T22:01:33.314Z,24.60
2023-02-11T22:04:06.018Z,24.50
2023-02-11T22:06:39.048Z,23.50
2023-02-11T22:09:12.148Z,22.73
2023-02-11T22:11:45.403Z,23.47
2023-02-11T22:14:19.180Z,24.40
2023-02-11T22:16:52.101Z,23.15
2023-02-11T22:19:25.155Z,22.62
2023-02-11T22:21:58.076Z,23.07
2023-02-11T22:24:31.875Z,23.40
2023-02-11T22:27:05.089Z,22.32
2023-02-11T22:32:10.704Z,21.85
2023-02-11T22:34:44.097Z,22.75
2023-02-11T22:37:16.952Z,22.02
2023-02-11T22:39:49.614Z,22.10
2023-02-11T22:42:23.055Z,23.02
2023-02-11T22:44:55.489Z,22.25
2023-02-11T22:47:39.078Z,21.17
2023-02-11T22:50:12.005Z,21.33
2023-02-11T22:52:45.052Z,22.48
2023-02-11T22:55:17.579Z,22.45
2023-02-11T22:57:50.714Z,20.88
2023-02-11T23:00:23.164Z,19.60
2023-02-11T23:02:56.841Z,20.92
2023-02-11T23:05:29.580Z,19.95
2023-02-11T23:08:02.096Z,21.30
2023-02-11T23:10:36.456Z,19.95
2023-02-11T23:13:10.618Z,20.77
2023-02-11T23:15:45.486Z,19.95
2023-02-11T23:18:18.035Z,21.23
2023-02-11T23:20:50.503Z,20.95
2023-02-11T23:23:23.078Z,20.70
2023-02-11T23:25:56.129Z,19.70
2023-02-11T23:28:29.770Z,20.82
2023-02-11T23:31:02.436Z,21.12
2023-02-11T23:33:34.967Z,18.55
2023-02-11T23:36:08.675Z,19.10
2023-02-11T23:38:41.716Z,20.27
2023-02-11T23:41:14.608Z,18.30
2023-02-11T23:44:03.078Z,18.75
2023-02-11T23:46:35.633Z,17.57
2023-02-11T23:49:08.239Z,17.57
2023-02-11T23:51:41.303Z,18.32
2023-02-11T23:54:15.029Z,17.37
2023-02-11T23:56:47.516Z,16.32
2023-02-11T23:59:20.037Z,16.07
